Main page
METAR-TAF:

METAR-TAF

Airports :

Carcassonne Airport

Carcassonne, France

latitude: 43-13N, longitude: 002-19E, elevation: 130 m

Current weather observation

The report was made 17 minutes ago, at 22:00 UTC
Calm wind
Temperature 1°C
Humidity 93%
Pressure 1022 hPa
Visibility 10 km or more
no clouds below 1500 m and no cumulonimbus

METAR: LFMK 102200Z AUTO 00000KT CAVOK 01/M00 Q1022

Time: 23:17 (22:17 UTC)

Forecast

The report was made 20 hours and 17 minutes ago, at 02:00 UTC
Forecast valid from 10 at 03 UTC to 11 at 03 UTC
Wind 19 kt from the West with gusts up to 30 kt
Visibility 10 km or more
Scattered clouds at a height of 2000 ft
Becoming
from 10 at 06 UTC to 10 at 08 UTC
Wind 10 kt from the West with gusts up to 20 kt
Visibility 10 km or more
no clouds below 1500 m and no cumulonimbus
Becoming
from 10 at 16 UTC to 10 at 17 UTC
Wind 5 kt from the West/Southwest

TAF: LFMK 100200Z 1003/1103 28019G30KT 9999 SCT020 BECMG 1006/1008 28010G20KT CAVOK BECMG 1016/1017 25005KT

Weather observations and forecasts of more than 4000 airports (METAR and TAF reports).

The available stations are represented by yellow and red dots on the map.

Hover mouse over dot to see the name of the station.

Then click to see weather observations and forecasts.

To change the map : click on the green buttons with a black cross to zoom in, on the green button with a dash to zoom out, or on the green arrows for adjacent maps.


METAR-TAF: